createdAt,value
2023-03-01T00:03:08.965Z,67.17
2023-03-01T00:08:10.437Z,67.47
2023-03-01T00:13:11.940Z,67.45
2023-03-01T00:18:13.375Z,68.02
2023-03-01T00:23:14.781Z,67.98
2023-03-01T00:28:17.038Z,68.07
2023-03-01T00:33:19.094Z,68.33
2023-03-01T00:38:20.506Z,68.38
2023-03-01T00:43:22.280Z,68.42
2023-03-01T00:48:23.687Z,68.47
2023-03-01T00:53:25.089Z,68.53
2023-03-01T00:58:27.198Z,68.52
2023-03-01T01:03:28.623Z,68.66
2023-03-01T01:08:30.043Z,68.73
2023-03-01T01:13:31.469Z,68.67
2023-03-01T01:18:33.402Z,68.85
2023-03-01T01:23:35.146Z,68.57
2023-03-01T01:28:36.929Z,69.11
2023-03-01T01:33:38.507Z,69.01
2023-03-01T01:38:40.308Z,68.78
2023-03-01T01:43:44.566Z,69.21
2023-03-01T01:48:49.239Z,69.36
2023-03-01T01:53:57.146Z,69.47
2023-03-01T01:58:58.774Z,69.64
2023-03-01T02:04:00.609Z,69.63
2023-03-01T02:09:07.811Z,69.48
2023-03-01T02:14:09.599Z,69.80
2023-03-01T02:19:36.312Z,69.90
2023-03-01T02:25:04.042Z,69.26
2023-03-01T02:30:07.578Z,70.01
2023-03-01T02:35:12.819Z,69.67
2023-03-01T02:40:19.668Z,69.68
2023-03-01T02:45:22.155Z,69.66
2023-03-01T02:50:56.447Z,69.89
2023-03-01T02:55:58.094Z,70.16
2023-03-01T03:01:01.911Z,69.80
2023-03-01T03:06:03.546Z,69.66
2023-03-01T03:11:05.087Z,70.20
2023-03-01T03:16:07.126Z,70.33
2023-03-01T03:21:11.378Z,69.67
2023-03-01T03:26:14.400Z,69.94
2023-03-01T03:31:15.932Z,70.23
2023-03-01T03:36:18.763Z,70.21
2023-03-01T03:41:20.441Z,70.40
2023-03-01T03:46:22.009Z,70.09
2023-03-01T03:51:23.803Z,69.97
2023-03-01T03:56:28.625Z,70.13
2023-03-01T04:01:30.448Z,70.07
2023-03-01T04:06:32.275Z,70.17
2023-03-01T04:11:35.632Z,70.60
2023-03-01T04:16:37.126Z,70.50
2023-03-01T04:21:38.669Z,70.16
2023-03-01T04:26:40.112Z,69.98
2023-03-01T04:31:42.185Z,70.81
2023-03-01T04:36:44.040Z,70.54
2023-03-01T04:41:45.571Z,70.78
2023-03-01T04:46:50.676Z,70.53
2023-03-01T04:51:52.100Z,70.43
2023-03-01T04:56:53.531Z,70.44
2023-03-01T05:01:57.788Z,70.83
2023-03-01T05:06:59.768Z,70.40
2023-03-01T05:12:01.259Z,70.35
2023-03-01T05:17:04.927Z,70.21
2023-03-01T05:22:06.637Z,70.53
2023-03-01T05:27:08.067Z,70.48
2023-03-01T05:32:10.743Z,70.73
2023-03-01T05:37:12.201Z,70.95
2023-03-01T05:42:13.632Z,70.61
2023-03-01T05:47:15.063Z,70.94
2023-03-01T05:52:16.612Z,71.02
2023-03-01T05:57:18.040Z,71.01
2023-03-01T06:02:19.607Z,70.55
2023-03-01T06:07:21.039Z,70.35
2023-03-01T06:12:22.459Z,70.76
2023-03-01T06:17:23.956Z,70.98
2023-03-01T06:22:25.396Z,70.68
2023-03-01T06:27:27.012Z,70.39
2023-03-01T06:32:28.531Z,70.83
2023-03-01T06:37:30.008Z,70.92
2023-03-01T06:42:31.576Z,70.98
2023-03-01T06:47:34.179Z,70.80
2023-03-01T06:52:35.930Z,70.33
2023-03-01T06:57:37.408Z,70.46
2023-03-01T07:02:38.877Z,70.68
2023-03-01T07:07:40.350Z,71.00
2023-03-01T07:12:42.221Z,71.06
2023-03-01T07:17:45.482Z,71.29
2023-03-01T07:22:46.937Z,71.10
2023-03-01T07:27:53.029Z,70.76
2023-03-01T07:32:55.890Z,70.51
2023-03-01T07:37:57.480Z,70.33
2023-03-01T07:42:59.589Z,69.65
2023-03-01T07:48:01.173Z,69.84
2023-03-01T07:53:03.614Z,69.54
2023-03-01T07:58:05.413Z,68.59
2023-03-01T08:03:06.931Z,68.07
2023-03-01T08:08:08.466Z,67.13
2023-03-01T08:13:09.884Z,66.78
2023-03-01T08:18:11.328Z,65.99
2023-03-01T08:23:13.063Z,64.88
2023-03-01T08:28:14.712Z,63.45
2023-03-01T08:33:16.244Z,63.75
2023-03-01T08:38:17.735Z,62.03
2023-03-01T08:43:19.390Z,60.77
2023-03-01T08:48:20.870Z,60.46
2023-03-01T08:53:22.323Z,59.58
2023-03-01T08:58:23.811Z,59.83
2023-03-01T09:03:26.350Z,57.62
2023-03-01T09:08:27.902Z,57.55
2023-03-01T09:13:32.076Z,56.12
2023-03-01T09:18:34.455Z,56.79
2023-03-01T09:23:41.816Z,57.12
2023-03-01T09:28:43.825Z,56.53
2023-03-01T09:33:48.912Z,55.45
2023-03-01T09:38:51.006Z,53.96
2023-03-01T09:43:58.299Z,54.38
2023-03-01T09:49:06.384Z,54.56
2023-03-01T09:54:11.376Z,55.88
2023-03-01T09:59:24.234Z,55.15
2023-03-01T10:04:28.689Z,54.04
2023-03-01T10:09:35.250Z,53.56
2023-03-01T10:14:45.015Z,53.13
2023-03-01T10:19:47.988Z,52.00
2023-03-01T10:24:52.858Z,52.48
2023-03-01T10:30:12.852Z,52.22
2023-03-01T10:35:26.555Z,51.17
2023-03-01T10:40:27.997Z,48.85
2023-03-01T10:45:40.408Z,49.75
2023-03-01T10:50:44.354Z,49.52
2023-03-01T10:55:46.003Z,49.12
2023-03-01T11:00:53.615Z,49.55
2023-03-01T11:06:03.330Z,48.31
2023-03-01T11:11:07.670Z,48.25
2023-03-01T11:16:13.453Z,47.12
2023-03-01T11:21:16.905Z,47.72
2023-03-01T11:26:19.455Z,47.76
2023-03-01T11:31:23.094Z,47.88
2023-03-01T11:36:37.679Z,46.51
2023-03-01T11:41:41.731Z,47.48
2023-03-01T11:47:08.549Z,47.05
2023-03-01T11:52:17.949Z,46.56
2023-03-01T11:57:47.967Z,46.01
2023-03-01T12:03:10.525Z,45.62
2023-03-01T12:08:16.626Z,45.58
2023-03-01T12:13:55.548Z,45.44
2023-03-01T12:19:09.724Z,44.17
2023-03-01T12:24:29.511Z,42.84
2023-03-01T12:30:02.002Z,42.39
2023-03-01T12:35:28.965Z,42.65
2023-03-01T12:40:34.996Z,43.52
2023-03-01T12:46:19.766Z,42.84
2023-03-01T12:51:27.639Z,44.00
2023-03-01T12:56:31.872Z,42.26
2023-03-01T13:01:36.451Z,41.12
2023-03-01T13:06:56.565Z,41.28
2023-03-01T13:11:58.608Z,38.64
2023-03-01T13:17:00.210Z,37.09
2023-03-01T13:22:29.743Z,37.11
2023-03-01T13:27:31.473Z,36.48
2023-03-01T13:32:44.484Z,37.55
2023-03-01T13:37:46.962Z,37.43
2023-03-01T13:43:04.814Z,37.74
2023-03-01T13:48:16.775Z,38.32
2023-03-01T13:53:22.572Z,39.55
2023-03-01T13:58:27.187Z,38.93
2023-03-01T14:03:30.758Z,40.19
2023-03-01T14:08:32.557Z,40.61
2023-03-01T14:14:04.909Z,39.42
2023-03-01T14:19:27.633Z,40.15
2023-03-01T14:24:47.374Z,40.06
2023-03-01T14:30:04.729Z,40.06
2023-03-01T14:35:25.882Z,39.76
2023-03-01T14:40:33.960Z,40.26
2023-03-01T14:45:35.484Z,40.24
2023-03-01T14:50:43.295Z,40.39
2023-03-01T14:55:49.380Z,40.74
2023-03-01T15:01:03.035Z,41.49
2023-03-01T15:06:06.391Z,41.49
2023-03-01T15:11:29.111Z,42.03
2023-03-01T15:16:33.095Z,42.41
2023-03-01T15:21:37.227Z,42.52
2023-03-01T15:26:44.232Z,42.24
2023-03-01T15:32:05.945Z,42.20
2023-03-01T15:37:35.960Z,42.93
2023-03-01T15:42:38.564Z,43.55
2023-03-01T15:47:41.897Z,43.63
2023-03-01T15:52:44.452Z,43.96
2023-03-01T15:57:45.978Z,43.73
2023-03-01T16:02:47.489Z,44.19
2023-03-01T16:07:49.014Z,44.60
2023-03-01T16:12:53.277Z,44.20
2023-03-01T16:17:55.131Z,44.55
2023-03-01T16:23:01.092Z,45.47
2023-03-01T16:28:05.976Z,45.68
2023-03-01T16:33:24.486Z,46.06
2023-03-01T16:38:32.592Z,46.77
2023-03-01T16:43:34.071Z,47.10
2023-03-01T16:48:35.506Z,47.85
2023-03-01T16:53:38.208Z,47.84
2023-03-01T16:58:40.857Z,48.93
2023-03-01T17:03:42.939Z,49.63
2023-03-01T17:08:44.476Z,50.10
2023-03-01T17:13:47.321Z,50.87
2023-03-01T17:18:49.470Z,51.40
2023-03-01T17:23:56.248Z,51.68
2023-03-01T17:28:59.126Z,51.78
2023-03-01T17:34:01.754Z,52.04
2023-03-01T17:39:03.416Z,52.00
2023-03-01T17:44:04.998Z,52.31
2023-03-01T17:49:06.444Z,52.83
2023-03-01T17:54:07.881Z,53.67
2023-03-01T17:59:09.319Z,54.16
2023-03-01T18:04:11.245Z,54.69
2023-03-01T18:09:12.710Z,54.63
2023-03-01T18:14:14.161Z,55.37
2023-03-01T18:19:15.619Z,56.14
2023-03-01T18:24:17.050Z,56.46
2023-03-01T18:29:18.495Z,56.80
2023-03-01T18:34:19.952Z,57.26
2023-03-01T18:39:21.408Z,57.57
2023-03-01T18:44:22.893Z,57.51
2023-03-01T18:49:26.316Z,58.18
2023-03-01T18:54:27.830Z,58.34
2023-03-01T18:59:30.012Z,58.67
2023-03-01T19:04:31.588Z,59.37
2023-03-01T19:09:33.030Z,59.82
2023-03-01T19:14:34.801Z,60.04
2023-03-01T19:19:36.433Z,60.06
2023-03-01T19:24:38.220Z,60.49
2023-03-01T19:29:39.808Z,60.77
2023-03-01T19:34:42.219Z,61.41
2023-03-01T19:39:43.713Z,61.20
2023-03-01T19:44:45.169Z,61.80
2023-03-01T19:49:46.925Z,61.76
2023-03-01T19:54:49.369Z,61.77
2023-03-01T19:59:51.965Z,61.57
2023-03-01T20:04:53.410Z,62.37
2023-03-01T20:09:54.826Z,62.42
2023-03-01T20:14:57.038Z,62.45
2023-03-01T20:19:58.536Z,62.69
2023-03-01T20:25:00.011Z,62.68
2023-03-01T20:30:01.431Z,63.18
2023-03-01T20:35:03.253Z,63.17
2023-03-01T20:40:05.498Z,63.09
2023-03-01T20:45:07.414Z,63.70
2023-03-01T20:50:09.560Z,63.35
2023-03-01T20:55:11.919Z,63.74
2023-03-01T21:00:13.682Z,64.09
2023-03-01T21:05:15.222Z,64.04
2023-03-01T21:10:17.159Z,64.22
2023-03-01T21:15:28.682Z,63.95
2023-03-01T21:20:30.983Z,64.05
2023-03-01T21:25:35.036Z,64.39
2023-03-01T21:30:36.715Z,64.40
2023-03-01T21:35:38.212Z,64.53
2023-03-01T21:40:39.675Z,65.01
2023-03-01T21:45:41.228Z,64.73
2023-03-01T21:50:42.693Z,64.98
2023-03-01T21:55:48.576Z,65.11
2023-03-01T22:00:50.106Z,65.54
2023-03-01T22:05:59.792Z,65.45
2023-03-01T22:11:02.453Z,65.89
2023-03-01T22:16:04.236Z,65.90
2023-03-01T22:21:09.088Z,66.08
2023-03-01T22:26:34.958Z,66.28
2023-03-01T22:31:37.322Z,66.13
2023-03-01T22:36:41.640Z,66.55
2023-03-01T22:41:46.003Z,66.73
2023-03-01T22:46:47.879Z,66.30
2023-03-01T22:51:50.132Z,66.26
2023-03-01T22:56:51.700Z,66.88
2023-03-01T23:01:53.850Z,66.87
2023-03-01T23:06:55.351Z,66.58
2023-03-01T23:11:59.016Z,67.12
2023-03-01T23:17:01.653Z,67.42
2023-03-01T23:22:03.235Z,66.91
2023-03-01T23:27:04.793Z,67.26
2023-03-01T23:32:06.266Z,66.97
2023-03-01T23:37:09.945Z,67.29
2023-03-01T23:42:11.382Z,67.14
2023-03-01T23:47:12.809Z,67.04
2023-03-01T23:52:15.249Z,67.19
2023-03-01T23:57:16.683Z,67.88
